Time;durP1;ratioP1;P1;durP2;ratioP2;P2;SDS_P1;SDS_P2;PMS_P1;PMS_P2;Temp;Humidity;BMP_temperature;BMP_pressure;BME280_temperature;BME280_humidity;BME280_pressure;Samples;Min_cycle;Max_cycle;Signal;HPM_P1;HPM_P2
2023/02/08 00:00:21;;;;;;;23.20;14.07;;;;;;;2.45;46.78;99388.38;5005087;28;20687;-70
2023/02/08 00:02:47;;;;;;;21.57;14.53;;;;;;;2.47;47.03;99391.78;5003899;28;20596;-72
2023/02/08 00:05:12;;;;;;;25.10;14.00;;;;;;;2.40;46.79;99387.66;4999536;28;20567;-71
2023/02/08 00:07:38;;;;;;;22.00;13.80;;;;;;;2.41;47.24;99386.75;5003852;28;20180;-70
2023/02/08 00:10:05;;;;;;;22.10;14.47;;;;;;;2.42;47.01;99380.69;5007950;28;20224;-70
2023/02/08 00:12:31;;;;;;;22.47;14.27;;;;;;;2.27;47.09;99384.59;4994817;28;20177;-69
2023/02/08 00:14:57;;;;;;;23.10;14.00;;;;;;;2.17;47.60;99365.09;5004043;28;20514;-70
2023/02/08 00:17:22;;;;;;;22.00;14.10;;;;;;;2.13;47.58;99362.59;5004107;28;20562;-68
2023/02/08 00:19:48;;;;;;;24.10;14.50;;;;;;;2.13;47.26;99361.75;5003595;28;20222;-70
2023/02/08 00:22:13;;;;;;;24.53;14.03;;;;;;;2.12;47.49;99365.22;5004594;28;20676;-70
2023/02/08 00:24:39;;;;;;;21.67;14.20;;;;;;;2.19;47.66;99355.53;5002944;28;20631;-69
2023/02/08 00:27:04;;;;;;;24.50;14.77;;;;;;;2.25;47.26;99361.38;4999470;28;20200;-70
2023/02/08 00:29:29;;;;;;;26.33;15.93;;;;;;;2.18;47.36;99357.25;4983385;28;20200;-70
2023/02/08 00:31:55;;;;;;;26.13;16.00;;;;;;;2.02;47.54;99358.63;4994748;28;20218;-70
2023/02/08 00:34:20;;;;;;;23.83;15.00;;;;;;;2.05;47.45;99354.22;5005291;28;20239;-70
2023/02/08 00:36:46;;;;;;;22.60;14.33;;;;;;;2.04;47.35;99351.66;5003395;28;20267;-70
2023/02/08 00:39:11;;;;;;;27.47;15.50;;;;;;;2.06;47.41;99355.03;5006597;28;20219;-71
2023/02/08 00:41:37;;;;;;;27.97;15.50;;;;;;;2.00;47.64;99340.56;5001412;28;20272;-71
2023/02/08 00:44:02;;;;;;;30.57;17.57;;;;;;;2.09;47.50;99337.69;5003240;28;20220;-70
2023/02/08 00:46:27;;;;;;;27.00;16.27;;;;;;;2.11;47.41;99343.66;5001706;28;20184;-70
2023/02/08 00:48:53;;;;;;;24.80;15.90;;;;;;;2.17;47.05;99345.22;4998065;28;20275;-71
2023/02/08 00:51:18;;;;;;;24.27;14.93;;;;;;;2.16;47.10;99348.69;5004867;28;20239;-69
2023/02/08 00:53:45;;;;;;;25.33;15.33;;;;;;;2.07;47.27;99351.56;4998378;28;20215;-70
2023/02/08 00:56:12;;;;;;;24.83;15.07;;;;;;;2.02;47.56;99340.53;4993876;28;20221;-69
2023/02/08 00:58:38;;;;;;;25.00;14.67;;;;;;;1.99;47.65;99349.22;4988907;28;20877;-69
2023/02/08 01:01:04;;;;;;;23.27;14.07;;;;;;;1.87;47.80;99354.75;4999930;28;20456;-70
2023/02/08 01:03:32;;;;;;;23.90;14.63;;;;;;;1.96;47.40;99355.34;5006805;28;20730;-69
2023/02/08 01:06:05;;;;;;;21.37;13.50;;;;;;;1.64;48.14;99364.00;4974956;28;20431;-69
2023/02/08 01:08:31;;;;;;;24.20;13.50;;;;;;;1.69;47.81;99362.16;5008751;28;20469;-69
2023/02/08 01:11:11;;;;;;;24.03;14.13;;;;;;;1.70;47.83;99369.03;5002983;28;20452;-71
2023/02/08 01:13:37;;;;;;;24.10;13.33;;;;;;;1.68;48.25;99375.97;4994384;28;20184;-70
2023/02/08 01:16:11;;;;;;;23.00;12.33;;;;;;;1.76;47.75;99374.00;4996291;28;20478;-69
2023/02/08 01:18:39;;;;;;;21.80;12.40;;;;;;;1.82;47.59;99360.91;4987912;28;20615;-70
2023/02/08 01:21:13;;;;;;;25.50;14.53;;;;;;;1.89;47.59;99360.72;5006149;28;20441;-70
2023/02/08 01:23:39;;;;;;;22.87;14.43;;;;;;;1.85;47.65;99362.56;4993088;28;20422;-70
2023/02/08 01:26:05;;;;;;;26.03;14.90;;;;;;;1.72;47.70;99372.38;4995934;28;20436;-70
2023/02/08 01:28:30;;;;;;;22.90;15.10;;;;;;;1.58;48.01;99359.88;5005427;28;20183;-70
2023/02/08 01:30:56;;;;;;;25.27;15.17;;;;;;;1.60;47.93;99367.56;4996356;28;20950;-71
2023/02/08 01:33:21;;;;;;;21.23;14.40;;;;;;;1.57;48.03;99358.16;5005354;28;20185;-71
2023/02/08 01:35:51;;;;;;;22.07;13.60;;;;;;;1.58;48.34;99344.34;5003351;28;20197;-70
2023/02/08 01:38:19;;;;;;;23.43;13.80;;;;;;;1.61;47.97;99338.25;4987206;28;20760;-70
2023/02/08 01:40:44;;;;;;;28.87;14.63;;;;;;;1.61;48.45;99341.69;4991539;28;20799;-69
2023/02/08 01:43:55;;;;;;;21.67;13.53;;;;;;;1.60;48.05;99347.75;4999031;28;20419;-70
2023/02/08 01:46:20;;;;;;;21.13;12.30;;;;;;;1.55;47.89;99339.25;4985888;28;20282;-70
2023/02/08 01:48:46;;;;;;;20.37;11.70;;;;;;;1.55;47.69;99343.59;5002013;28;20511;-70
2023/02/08 01:51:16;;;;;;;19.03;12.00;;;;;;;1.54;47.76;99337.56;4978996;28;20709;-70
2023/02/08 01:53:42;;;;;;;17.27;11.70;;;;;;;1.46;47.82;99334.34;5003032;28;20191;-69
2023/02/08 01:56:11;;;;;;;21.93;12.03;;;;;;;1.47;47.87;99330.88;4994892;28;21125;-68
2023/02/08 01:58:45;;;;;;;19.80;12.13;;;;;;;1.42;47.94;99332.75;4981392;28;20482;-68
2023/02/08 02:01:11;;;;;;;19.27;11.20;;;;;;;1.48;48.06;99330.00;4983070;28;20552;-69
2023/02/08 02:03:37;;;;;;;18.73;11.50;;;;;;;1.53;47.38;99322.94;4997478;28;21105;-70
2023/02/08 02:06:14;;;;;;;20.67;12.07;;;;;;;1.49;47.67;99326.53;4998465;28;20431;-70
2023/02/08 02:08:45;;;;;;;22.70;12.00;;;;;;;1.48;47.73;99330.00;4983233;28;20196;-69
2023/02/08 02:11:12;;;;;;;20.30;12.77;;;;;;;1.38;47.79;99324.22;5005522;28;20435;-70
2023/02/08 02:13:38;;;;;;;21.90;12.50;;;;;;;1.32;47.68;99327.00;5001125;28;20454;-68
2023/02/08 02:16:04;;;;;;;20.23;11.53;;;;;;;1.17;48.20;99318.78;4985070;28;20824;-69
2023/02/08 02:18:31;;;;;;;17.87;11.27;;;;;;;1.23;48.19;99312.59;5000673;28;20471;-69
2023/02/08 02:21:22;;;;;;;19.77;12.07;;;;;;;1.12;48.66;99310.28;4984865;28;20617;-68
2023/02/08 02:24:25;;;;;;;22.60;12.33;;;;;;;1.23;48.47;99313.41;4979631;28;20432;-69
2023/02/08 02:27:13;;;;;;;18.30;11.33;;;;;;;1.21;48.04;99304.03;4989030;28;20434;-70
2023/02/08 02:30:12;;;;;;;19.13;12.00;;;;;;;1.13;48.05;99304.22;4977886;28;20443;-69
2023/02/08 02:32:58;;;;;;;18.93;11.83;;;;;;;1.15;48.39;99297.28;4992394;28;20933;-69
2023/02/08 02:35:43;;;;;;;16.73;10.60;;;;;;;1.12;48.75;99293.94;4978878;28;20436;-69
2023/02/08 02:38:33;;;;;;;18.50;11.77;;;;;;;1.20;48.44;99298.00;5004174;28;20534;-67
2023/02/08 02:44:24;;;;;;;20.47;12.00;;;;;;;1.28;47.87;99296.94;4990684;28;20416;-70
2023/02/08 02:47:12;;;;;;;25.53;12.03;;;;;;;1.32;47.58;99301.16;4974622;28;20427;-70
2023/02/08 02:50:05;;;;;;;19.33;12.13;;;;;;;1.35;47.81;99294.16;4992207;28;20446;-68
2023/02/08 02:52:38;;;;;;;14.40;10.23;;;;;;;1.14;48.02;99302.47;4979593;28;21217;-70
2023/02/08 02:55:09;;;;;;;20.13;11.70;;;;;;;1.18;47.86;99301.53;4997857;28;20428;-70
2023/02/08 02:57:35;;;;;;;16.63;11.60;;;;;;;1.19;47.79;99301.50;4982466;28;20463;-67
2023/02/08 03:00:09;;;;;;;20.27;11.40;;;;;;;1.11;48.00;99302.59;4979684;28;20518;-70
2023/02/08 03:02:34;;;;;;;18.43;11.70;;;;;;;0.93;48.60;99302.19;4995186;28;20844;-71
2023/02/08 03:05:00;;;;;;;17.60;11.63;;;;;;;0.89;48.59;99313.47;4992044;28;20434;-71
2023/02/08 03:07:43;;;;;;;21.70;11.83;;;;;;;0.97;48.49;99303.81;5006240;28;20271;-71
2023/02/08 03:10:30;;;;;;;27.50;12.43;;;;;;;0.82;48.63;99306.78;4996335;28;20320;-70
2023/02/08 03:13:17;;;;;;;20.40;12.40;;;;;;;0.92;48.65;99310.81;5007144;28;21302;-69
2023/02/08 03:16:01;;;;;;;18.20;11.37;;;;;;;0.93;48.61;99309.91;4982275;28;20436;-70
2023/02/08 03:18:51;;;;;;;19.73;11.97;;;;;;;0.93;48.74;99299.59;4984648;28;20467;-70
2023/02/08 03:21:37;;;;;;;20.63;10.87;;;;;;;0.83;48.78;99300.72;5008124;28;20451;-71
2023/02/08 03:24:26;;;;;;;20.37;12.20;;;;;;;0.82;48.95;99293.88;5004464;28;20464;-68
2023/02/08 03:27:17;;;;;;;20.50;12.30;;;;;;;0.84;49.04;99299.84;4988653;28;20435;-70
2023/02/08 03:29:53;;;;;;;22.43;11.37;;;;;;;0.87;49.02;99299.78;4987606;28;20455;-68
2023/02/08 03:32:22;;;;;;;20.00;11.53;;;;;;;0.94;48.61;99305.63;5003273;28;20435;-69
2023/02/08 03:34:54;;;;;;;22.10;12.40;;;;;;;0.96;48.41;99304.69;4983303;28;20846;-69
2023/02/08 03:37:22;;;;;;;18.63;12.40;;;;;;;0.88;48.50;99309.22;5003904;28;20463;-70
2023/02/08 03:39:50;;;;;;;20.27;12.80;;;;;;;0.71;48.81;99315.66;4994338;28;20466;-69
2023/02/08 03:42:20;;;;;;;18.97;11.57;;;;;;;0.80;48.81;99313.72;5007143;28;20424;-69
2023/02/08 03:44:57;;;;;;;18.40;12.03;;;;;;;0.82;47.88;99306.78;4985553;28;20451;-69
2023/02/08 03:47:28;;;;;;;19.13;11.80;;;;;;;0.90;48.25;99312.56;4989738;28;20424;-69
2023/02/08 03:49:56;;;;;;;17.57;11.60;;;;;;;0.91;48.11;99303.94;4986691;28;21225;-69
2023/02/08 03:52:22;;;;;;;21.80;12.17;;;;;;;0.82;48.40;99306.78;4984683;28;20428;-69
2023/02/08 03:54:55;;;;;;;26.63;12.10;;;;;;;0.73;48.35;99303.56;4987337;28;21061;-69
2023/02/08 03:57:23;;;;;;;19.93;12.00;;;;;;;0.81;48.36;99298.19;4984225;28;20467;-69
2023/02/08 03:59:54;;;;;;;19.60;11.53;;;;;;;0.89;48.15;99303.13;4985132;28;20498;-69
2023/02/08 04:02:22;;;;;;;21.67;11.53;;;;;;;0.81;48.31;99297.34;4990142;28;20435;-69
2023/02/08 04:04:49;;;;;;;21.07;12.50;;;;;;;0.73;48.97;99292.38;4978922;28;20436;-70
2023/02/08 04:07:16;;;;;;;20.93;12.77;;;;;;;0.80;47.85;99303.38;4973711;28;20991;-69
2023/02/08 04:09:41;;;;;;;24.77;14.23;;;;;;;0.74;47.90;99302.66;4987490;28;21041;-71
2023/02/08 04:12:07;;;;;;;28.47;14.97;;;;;;;0.74;47.82;99299.22;5007378;28;20514;-70
2023/02/08 04:14:32;;;;;;;25.33;15.00;;;;;;;0.74;48.29;99300.09;5002199;28;20184;-69
2023/02/08 04:16:58;;;;;;;30.03;15.90;;;;;;;0.69;48.44;99299.34;4999818;28;20352;-71
2023/02/08 04:19:23;;;;;;;30.17;15.33;;;;;;;0.56;48.50;99296.25;4990871;28;20220;-68
2023/02/08 04:21:49;;;;;;;41.30;22.80;;;;;;;0.54;48.15;99298.00;5001851;28;20186;-70
2023/02/08 04:24:14;;;;;;;40.00;22.27;;;;;;;0.52;48.78;99293.75;5006654;28;20195;-71
2023/02/08 04:26:39;;;;;;;37.47;21.87;;;;;;;0.51;48.64;99299.78;4997203;28;20749;-72
2023/02/08 04:29:05;;;;;;;32.70;20.27;;;;;;;0.55;48.57;99297.13;5001493;28;20778;-69
2023/02/08 04:31:30;;;;;;;30.60;18.80;;;;;;;0.59;48.69;99301.31;5003716;28;20802;-69
2023/02/08 04:33:56;;;;;;;36.80;18.60;;;;;;;0.47;48.70;99293.03;5000034;28;20189;-70
2023/02/08 04:36:21;;;;;;;31.47;17.77;;;;;;;0.49;48.74;99299.00;4996644;28;20185;-70
2023/02/08 04:38:47;;;;;;;27.30;16.43;;;;;;;0.41;48.97;99299.19;5000703;28;20848;-69
2023/02/08 04:41:12;;;;;;;25.03;14.00;;;;;;;0.49;48.19;99299.00;5008119;28;20208;-69
2023/02/08 04:43:38;;;;;;;22.10;14.00;;;;;;;0.47;48.28;99293.03;4983636;28;20588;-69
2023/02/08 04:46:03;;;;;;;22.17;14.10;;;;;;;0.38;48.25;99296.66;4981077;28;20616;-68
2023/02/08 04:48:29;;;;;;;21.70;13.67;;;;;;;0.47;48.70;99290.44;4998405;28;20184;-70
2023/02/08 04:50:56;;;;;;;24.00;14.00;;;;;;;0.56;48.46;99285.91;4999280;28;20719;-69
2023/02/08 04:53:22;;;;;;;30.00;15.30;;;;;;;0.59;48.17;99290.13;4989019;28;20667;-70
2023/02/08 04:55:47;;;;;;;26.67;15.27;;;;;;;0.50;48.52;99291.22;4997484;28;20440;-69
2023/02/08 04:58:13;;;;;;;23.20;13.70;;;;;;;0.41;48.60;99287.13;4990083;28;20588;-69
2023/02/08 05:00:38;;;;;;;21.60;13.27;;;;;;;0.31;48.91;99280.50;4998846;28;20212;-69
2023/02/08 05:03:03;;;;;;;24.80;14.63;;;;;;;0.37;48.69;99279.50;5004159;28;20189;-69
2023/02/08 05:05:29;;;;;;;21.60;12.83;;;;;;;0.43;48.57;99279.34;4995438;28;20191;-71
2023/02/08 05:07:54;;;;;;;24.47;13.10;;;;;;;0.43;48.65;99269.03;5006575;28;20907;-69
2023/02/08 05:10:20;;;;;;;24.40;13.90;;;;;;;0.36;48.33;99267.47;5001677;28;20213;-70
2023/02/08 05:12:46;;;;;;;21.33;12.30;;;;;;;0.31;48.41;99265.00;4991941;28;20215;-69
2023/02/08 05:15:11;;;;;;;23.57;13.13;;;;;;;0.23;48.73;99265.19;5000334;28;20192;-70
2023/02/08 05:17:37;;;;;;;21.47;12.40;;;;;;;0.21;48.39;99263.53;4995866;28;20302;-70
2023/02/08 05:20:04;;;;;;;20.27;12.53;;;;;;;0.28;48.49;99255.63;4991369;28;20213;-70
2023/02/08 05:22:30;;;;;;;19.80;12.70;;;;;;;0.28;48.61;99262.50;5001961;28;20423;-70
2023/02/08 05:24:56;;;;;;;20.23;13.37;;;;;;;0.36;48.36;99263.19;5003886;28;20497;-70
2023/02/08 05:27:21;;;;;;;21.37;13.60;;;;;;;0.28;48.68;99265.06;5001611;28;20838;-70
2023/02/08 05:29:46;;;;;;;23.03;13.20;;;;;;;0.27;48.93;99268.53;5003144;28;20696;-70
2023/02/08 05:32:12;;;;;;;23.83;12.67;;;;;;;0.34;48.77;99261.50;5001482;28;20242;-69
2023/02/08 05:34:37;;;;;;;24.00;13.50;;;;;;;0.28;48.51;99263.38;4979560;28;20240;-70
2023/02/08 05:37:03;;;;;;;26.77;16.20;;;;;;;0.15;48.75;99264.53;5001054;28;20223;-69
2023/02/08 05:39:28;;;;;;;30.10;18.40;;;;;;;0.21;48.71;99263.53;4984434;28;20207;-68
2023/02/08 05:41:54;;;;;;;23.90;15.57;;;;;;;0.10;48.83;99266.38;4985519;28;20267;-69
2023/02/08 05:44:19;;;;;;;25.23;13.70;;;;;;;0.21;48.54;99268.69;5001637;28;20211;-69
2023/02/08 05:46:45;;;;;;;29.03;15.83;;;;;;;0.21;48.44;99277.28;4983489;28;20181;-68
2023/02/08 05:49:10;;;;;;;22.63;13.33;;;;;;;0.12;48.47;99274.91;5001682;28;20185;-68
2023/02/08 05:51:36;;;;;;;20.70;12.70;;;;;;;0.15;48.87;99280.84;5001569;28;20673;-69
2023/02/08 05:54:01;;;;;;;24.70;14.00;;;;;;;0.11;48.61;99276.66;5004019;28;20199;-69
2023/02/08 05:56:28;;;;;;;22.27;12.23;;;;;;;0.18;48.64;99282.53;4997874;28;20282;-69
2023/02/08 05:58:54;;;;;;;27.83;15.00;;;;;;;0.20;48.80;99274.75;5006742;28;20214;-70
2023/02/08 06:01:20;;;;;;;40.03;21.07;;;;;;;0.12;48.89;99278.38;4990208;28;20458;-70
2023/02/08 06:03:46;;;;;;;53.23;24.00;;;;;;;0.17;48.29;99275.66;4999565;28;20188;-70
2023/02/08 06:06:11;;;;;;;25.40;15.60;;;;;;;0.18;48.58;99279.09;4996250;28;20438;-69
2023/02/08 06:08:38;;;;;;;23.00;13.43;;;;;;;0.15;48.36;99286.00;5006481;28;20187;-70
2023/02/08 06:11:04;;;;;;;25.03;13.67;;;;;;;0.18;48.50;99279.94;4986427;28;20494;-71
2023/02/08 06:13:29;;;;;;;37.33;19.00;;;;;;;0.20;48.29;99287.63;4999630;28;20428;-70
2023/02/08 06:15:55;;;;;;;36.93;18.43;;;;;;;0.24;48.07;99286.69;5004148;28;20258;-68
2023/02/08 06:18:21;;;;;;;45.40;23.87;;;;;;;0.23;48.06;99287.56;4992087;28;20585;-70
2023/02/08 06:20:46;;;;;;;55.90;28.27;;;;;;;0.15;47.90;99286.00;5003078;28;20214;-70
2023/02/08 06:23:12;;;;;;;88.57;38.43;;;;;;;0.01;48.43;99292.38;4998931;28;20459;-69
2023/02/08 06:25:37;;;;;;;97.27;43.27;;;;;;;0.09;48.46;99286.16;4988710;28;20341;-69
2023/02/08 06:28:03;;;;;;;112.17;48.80;;;;;;;0.03;48.41;99286.28;4997063;28;20682;-70
2023/02/08 06:30:29;;;;;;;98.40;42.27;;;;;;;0.07;48.71;99290.50;4970166;28;20217;-70
2023/02/08 06:32:54;;;;;;;106.83;44.30;;;;;;;0.00;48.53;99286.38;5004920;28;20438;-70
2023/02/08 06:35:20;;;;;;;103.17;43.60;;;;;;;-0.04;48.71;99279.59;4994437;28;20216;-70
2023/02/08 06:37:45;;;;;;;106.67;44.50;;;;;;;-0.14;48.59;99293.56;4998375;28;20248;-69
2023/02/08 06:40:11;;;;;;;106.33;44.17;;;;;;;-0.11;48.52;99283.16;4999601;28;20208;-70
2023/02/08 06:42:36;;;;;;;104.30;42.83;;;;;;;-0.12;48.89;99289.22;5005286;28;20816;-69
2023/02/08 06:45:02;;;;;;;79.20;35.33;;;;;;;-0.21;49.38;99293.69;5000271;28;20239;-71
2023/02/08 06:47:28;;;;;;;74.77;32.87;;;;;;;-0.19;49.01;99299.66;4972572;28;20605;-71
2023/02/08 06:49:54;;;;;;;64.90;30.03;;;;;;;-0.20;49.17;99287.66;4988701;28;20542;-70
2023/02/08 06:52:20;;;;;;;58.43;32.10;;;;;;;-0.18;49.58;99287.63;4997185;28;21139;-70
2023/02/08 06:54:45;;;;;;;65.93;36.13;;;;;;;-0.24;49.17;99282.59;4985029;28;20191;-70
2023/02/08 06:57:11;;;;;;;55.60;30.17;;;;;;;-0.18;49.34;99287.63;4996183;28;21060;-69
2023/02/08 06:59:40;;;;;;;40.47;22.50;;;;;;;-0.27;49.23;99288.69;4991014;28;20216;-70
2023/02/08 07:02:11;;;;;;;42.77;23.27;;;;;;;-0.21;49.09;99290.28;4983064;28;20426;-68
2023/02/08 07:04:36;;;;;;;45.30;21.33;;;;;;;-0.13;49.13;99284.97;4990531;28;20471;-70
2023/02/08 07:07:02;;;;;;;36.97;19.93;;;;;;;-0.26;49.30;99292.97;4993744;28;20434;-69
2023/02/08 07:09:27;;;;;;;38.30;19.17;;;;;;;-0.19;49.16;99294.50;4998234;28;20195;-69
2023/02/08 07:11:53;;;;;;;29.17;17.73;;;;;;;-0.11;49.38;99296.94;4979863;28;20905;-69
2023/02/08 07:14:18;;;;;;;29.83;17.47;;;;;;;-0.17;49.27;99307.34;4998637;28;20264;-68
2023/02/08 07:16:44;;;;;;;32.97;17.60;;;;;;;-0.13;49.66;99303.84;4995203;28;20185;-70
2023/02/08 07:19:09;;;;;;;24.37;15.40;;;;;;;-0.12;49.71;99302.97;5007007;28;20215;-69
2023/02/08 07:21:35;;;;;;;30.57;16.30;;;;;;;-0.08;49.66;99308.88;4999348;28;20695;-70
2023/02/08 07:24:00;;;;;;;28.87;15.73;;;;;;;-0.06;49.78;99297.66;4997471;28;20237;-70
2023/02/08 07:26:25;;;;;;;26.87;15.10;;;;;;;-0.06;49.36;99307.13;4997472;28;20560;-70
2023/02/08 07:28:51;;;;;;;30.83;17.50;;;;;;;-0.02;49.60;99307.03;4998725;28;20187;-70
2023/02/08 07:31:16;;;;;;;31.93;17.37;;;;;;;-0.05;49.71;99306.25;5003643;28;20228;-70
2023/02/08 07:33:43;;;;;;;25.10;15.77;;;;;;;0.06;49.84;99314.59;4985879;28;20202;-71
2023/02/08 07:36:09;;;;;;;30.00;15.73;;;;;;;-0.03;49.99;99302.75;4994598;28;20192;-71
2023/02/08 07:38:35;;;;;;;32.33;17.10;;;;;;;0.17;50.17;99303.19;4994665;28;20462;-70
2023/02/08 07:41:02;;;;;;;31.70;16.70;;;;;;;0.11;50.29;99307.63;4984420;28;20534;-70
2023/02/08 07:43:28;;;;;;;29.57;17.07;;;;;;;-0.11;51.03;99304.66;4986718;28;20577;-71
2023/02/08 07:46:26;;;;;;;29.00;17.47;;;;;;;0.11;51.34;99302.47;4996146;28;20514;-70
2023/02/08 07:48:52;;;;;;;31.07;17.43;;;;;;;0.34;51.29;99306.22;5001527;28;20185;-71
2023/02/08 07:51:17;;;;;;;40.27;17.70;;;;;;;0.53;50.87;99301.47;4997487;28;20513;-70
2023/02/08 07:53:43;;;;;;;31.40;15.87;;;;;;;0.64;50.79;99306.34;5002904;28;20180;-70
2023/02/08 07:56:09;;;;;;;39.90;18.17;;;;;;;0.59;51.10;99308.22;4998054;28;20196;-71
2023/02/08 07:58:34;;;;;;;29.37;16.73;;;;;;;0.61;51.11;99314.19;4996215;28;20204;-70
2023/02/08 08:01:00;;;;;;;26.70;16.60;;;;;;;0.81;51.17;99305.06;4999005;28;20451;-71
2023/02/08 08:03:25;;;;;;;38.10;17.73;;;;;;;0.82;51.34;99307.59;4987616;28;20189;-70
2023/02/08 08:05:52;;;;;;;27.53;16.57;;;;;;;0.92;51.36;99308.22;4999516;28;20250;-70
2023/02/08 08:08:17;;;;;;;30.80;16.40;;;;;;;1.12;51.24;99293.94;5006472;28;20173;-69
2023/02/08 08:10:43;;;;;;;28.30;17.10;;;;;;;1.14;51.04;99307.66;5005633;28;20473;-71
2023/02/08 08:13:09;;;;;;;33.40;17.50;;;;;;;1.30;50.49;99301.19;5008127;28;20187;-70
2023/02/08 08:15:34;;;;;;;29.53;17.60;;;;;;;1.56;49.96;99293.59;5006421;28;20786;-70
2023/02/08 08:18:00;;;;;;;34.63;20.20;;;;;;;1.92;48.63;99301.97;5002127;28;20255;-71
2023/02/08 08:20:25;;;;;;;28.87;16.80;;;;;;;2.18;47.82;99302.94;5005631;28;20295;-69
2023/02/08 08:22:51;;;;;;;32.07;17.70;;;;;;;2.42;46.68;99292.69;4998323;28;20191;-68
2023/02/08 08:25:16;;;;;;;28.27;16.17;;;;;;;2.72;46.29;99292.59;5006367;28;20624;-69
2023/02/08 08:27:42;;;;;;;27.27;15.97;;;;;;;3.12;44.68;99299.00;4999869;28;20181;-69
2023/02/08 08:30:09;;;;;;;25.80;16.00;;;;;;;3.52;43.94;99294.97;5000245;28;20220;-69
2023/02/08 08:32:36;;;;;;;28.20;16.57;;;;;;;3.87;42.29;99293.69;5005896;28;20585;-71
2023/02/08 08:35:02;;;;;;;25.50;16.00;;;;;;;4.30;42.08;99292.84;4998768;28;20424;-70
2023/02/08 08:37:27;;;;;;;27.43;15.37;;;;;;;4.51;40.71;99290.28;5001782;28;20967;-70
2023/02/08 08:39:53;;;;;;;26.97;15.03;;;;;;;4.90;40.03;99301.69;4961846;28;20452;-70
2023/02/08 08:42:19;;;;;;;25.93;14.70;;;;;;;5.17;39.02;99285.78;4998538;28;20177;-70
2023/02/08 08:44:45;;;;;;;23.97;14.83;;;;;;;5.72;38.61;99284.22;5002684;28;20212;-70
2023/02/08 08:47:11;;;;;;;31.83;14.60;;;;;;;5.97;36.13;99289.16;5000692;28;20452;-70
2023/02/08 08:49:36;;;;;;;24.33;15.10;;;;;;;6.22;35.72;99282.81;5005221;28;20730;-70
2023/02/08 08:52:02;;;;;;;22.23;13.67;;;;;;;6.62;35.92;99283.44;4994679;28;20688;-71
2023/02/08 08:54:27;;;;;;;26.53;14.50;;;;;;;6.64;34.89;99289.41;5001384;28;20636;-69
2023/02/08 08:56:53;;;;;;;30.10;17.03;;;;;;;6.94;34.98;99280.13;4998608;28;20231;-70
2023/02/08 08:59:18;;;;;;;23.40;14.37;;;;;;;7.39;33.76;99273.47;4990296;28;20197;-70
2023/02/08 09:01:44;;;;;;;23.50;14.30;;;;;;;7.48;32.86;99280.78;5002092;28;20192;-70
2023/02/08 09:04:09;;;;;;;24.07;14.27;;;;;;;7.47;32.24;99279.09;4999615;28;20903;-71
2023/02/08 09:06:35;;;;;;;20.43;14.50;;;;;;;7.58;32.27;99268.09;5002519;28;20709;-71
2023/02/08 09:09:00;;;;;;;19.77;13.80;;;;;;;7.91;31.16;99266.34;5006918;28;20211;-72
2023/02/08 09:11:26;;;;;;;22.43;13.30;;;;;;;7.99;31.38;99264.13;4985531;28;20216;-70
2023/02/08 09:13:54;;;;;;;25.63;14.00;;;;;;;7.84;30.65;99258.84;5007398;28;20188;-69
2023/02/08 09:16:20;;;;;;;24.53;12.70;;;;;;;8.36;31.36;99256.81;5000253;28;20181;-69
2023/02/08 09:18:46;;;;;;;21.73;14.00;;;;;;;8.78;30.92;99261.47;5001568;28;20467;-69
2023/02/08 09:21:13;;;;;;;25.60;15.10;;;;;;;8.97;29.72;99262.03;5005306;28;20480;-69
2023/02/08 09:23:39;;;;;;;23.17;15.13;;;;;;;9.18;29.71;99257.28;5002143;28;20275;-71
2023/02/08 09:26:08;;;;;;;29.37;13.97;;;;;;;9.45;29.46;99253.09;5006634;28;20972;-69
2023/02/08 09:28:34;;;;;;;21.30;12.67;;;;;;;9.72;29.08;99260.13;4993627;28;20236;-71
2023/02/08 09:31:09;;;;;;;23.20;14.27;;;;;;;9.70;28.23;99254.19;5007271;28;20534;-70
2023/02/08 09:33:34;;;;;;;20.30;13.13;;;;;;;9.82;28.08;99256.03;5002303;28;20276;-69
2023/02/08 09:36:00;;;;;;;22.40;13.63;;;;;;;9.87;27.96;99253.09;4993976;28;20519;-71
2023/02/08 09:38:25;;;;;;;21.87;13.30;;;;;;;10.21;27.89;99246.50;5002902;28;20208;-71
2023/02/08 09:41:09;;;;;;;18.77;12.87;;;;;;;10.41;26.95;99249.66;5003157;28;20590;-70
2023/02/08 09:43:44;;;;;;;20.73;13.43;;;;;;;10.47;26.67;99251.84;5001150;28;20189;-70
2023/02/08 09:46:22;;;;;;;21.53;14.03;;;;;;;10.85;26.80;99251.06;4998209;28;20467;-72
2023/02/08 09:48:49;;;;;;;22.03;13.83;;;;;;;11.13;25.82;99256.25;4987094;28;20849;-70
2023/02/08 09:51:26;;;;;;;19.03;11.90;;;;;;;11.32;24.83;99247.91;4982088;28;21120;-71
2023/02/08 09:54:00;;;;;;;16.83;12.23;;;;;;;11.24;24.93;99244.97;4988097;28;20431;-71
2023/02/08 09:56:30;;;;;;;21.43;14.93;;;;;;;11.62;25.02;99244.06;4982782;28;20788;-71
2023/02/08 09:58:56;;;;;;;23.27;12.90;;;;;;;11.76;24.75;99245.72;4980310;28;20594;-70
2023/02/08 10:01:29;;;;;;;18.17;12.33;;;;;;;11.73;24.00;99243.31;4981100;28;20467;-71
2023/02/08 10:04:14;;;;;;;23.00;13.63;;;;;;;11.95;24.36;99238.19;4983164;28;20668;-70
2023/02/08 10:06:40;;;;;;;22.03;13.40;;;;;;;11.97;23.88;99238.09;4973960;28;20440;-72
2023/02/08 10:09:08;;;;;;;27.30;13.20;;;;;;;11.81;24.08;99230.44;4995201;28;20420;-71
2023/02/08 10:11:46;;;;;;;21.80;13.90;;;;;;;12.09;24.22;99229.34;4973572;28;20204;-72
2023/02/08 10:14:42;;;;;;;20.80;12.63;;;;;;;12.33;23.95;99231.09;4981704;28;20527;-72
2023/02/08 10:17:22;;;;;;;27.10;13.37;;;;;;;12.40;23.53;99229.69;4969475;28;20463;-70
2023/02/08 10:20:06;;;;;;;17.87;12.90;;;;;;;12.17;23.76;99235.81;4979804;28;20531;-70
2023/02/08 10:22:56;;;;;;;21.30;13.60;;;;;;;12.08;23.54;99238.16;4990178;28;20470;-72
2023/02/08 10:25:44;;;;;;;18.60;13.33;;;;;;;11.98;23.72;99227.47;4982415;28;20483;-71
2023/02/08 10:28:22;;;;;;;23.83;14.87;;;;;;;11.95;23.68;99234.72;4953065;28;20432;-70
2023/02/08 10:31:11;;;;;;;21.03;13.27;;;;;;;12.10;23.54;99227.53;5002962;28;20450;-69
2023/02/08 10:34:01;;;;;;;20.47;13.97;;;;;;;12.00;23.54;99216.84;4994769;28;20925;-71
2023/02/08 10:36:33;;;;;;;20.17;13.87;;;;;;;11.91;23.48;99214.88;4978027;28;20439;-70
2023/02/08 10:38:59;;;;;;;19.47;12.70;;;;;;;12.05;24.29;99220.00;4992502;28;20511;-71
2023/02/08 10:41:28;;;;;;;20.47;13.90;;;;;;;12.23;23.93;99215.16;4982772;28;20440;-71
2023/02/08 10:43:59;;;;;;;20.90;14.70;;;;;;;12.16;23.53;99211.28;4979104;28;20193;-70
2023/02/08 10:46:30;;;;;;;21.63;13.97;;;;;;;12.30;23.54;99215.56;4992610;28;20416;-71
2023/02/08 10:49:07;;;;;;;23.40;13.93;;;;;;;12.05;23.59;99212.09;4998476;28;20443;-70
2023/02/08 10:51:33;;;;;;;26.40;13.57;;;;;;;12.14;23.84;99214.06;4976007;28;20450;-69
2023/02/08 10:53:59;;;;;;;23.07;12.80;;;;;;;12.47;23.89;99210.81;4983198;28;21141;-70
2023/02/08 10:56:36;;;;;;;20.70;13.80;;;;;;;12.22;23.70;99207.41;4994448;28;20182;-70
2023/02/08 10:59:06;;;;;;;21.50;13.80;;;;;;;12.31;23.54;99206.72;4993675;28;20218;-70
2023/02/08 11:01:32;;;;;;;19.63;13.80;;;;;;;12.27;23.74;99205.25;4981560;28;20534;-70
2023/02/08 11:04:03;;;;;;;27.23;13.60;;;;;;;12.49;22.77;99198.38;4981752;28;20866;-70
2023/02/08 11:06:29;;;;;;;20.40;12.97;;;;;;;12.56;22.96;99191.72;4976730;28;20184;-70
2023/02/08 11:08:55;;;;;;;24.50;13.97;;;;;;;12.80;23.06;99185.53;5004236;28;20431;-70
2023/02/08 11:11:20;;;;;;;20.33;14.20;;;;;;;12.65;23.38;99188.38;4999158;28;20219;-72
2023/02/08 11:13:50;;;;;;;22.10;14.43;;;;;;;12.88;22.69;99191.03;5005975;28;20424;-71
2023/02/08 11:16:23;;;;;;;20.83;13.70;;;;;;;13.10;23.05;99181.47;4995744;28;20215;-70
2023/02/08 11:18:57;;;;;;;20.53;12.97;;;;;;;13.21;22.85;99184.09;4983177;28;20477;-71
2023/02/08 11:21:32;;;;;;;25.30;13.30;;;;;;;13.42;22.43;99178.13;5003274;28;20443;-71
2023/02/08 11:24:01;;;;;;;24.13;13.00;;;;;;;13.26;22.46;99175.84;4986208;28;20922;-71
2023/02/08 11:26:29;;;;;;;20.87;14.13;;;;;;;13.21;22.36;99163.88;4980205;28;20436;-69
2023/02/08 11:29:02;;;;;;;20.60;14.43;;;;;;;13.25;22.80;99164.47;4995304;28;20794;-69
2023/02/08 11:31:28;;;;;;;19.90;13.37;;;;;;;13.21;22.21;99155.97;5005474;28;20497;-70
2023/02/08 11:34:05;;;;;;;19.70;13.10;;;;;;;13.05;22.32;99148.44;4980395;28;20428;-70